sensor_id;sensor_type;location;lat;lon;timestamp;pressure;altitude;pressure_sealevel;temperature;humidity
34374;BME280;20637;55.770;37.592;2023-01-01T00:00:57;99278.50;;;2.58;85.33
34374;BME280;20637;55.770;37.592;2023-01-01T00:03:23;99274.03;;;2.58;85.39
34374;BME280;20637;55.770;37.592;2023-01-01T00:05:48;99274.53;;;2.52;85.40
34374;BME280;20637;55.770;37.592;2023-01-01T00:08:13;99268.13;;;2.55;85.64
34374;BME280;20637;55.770;37.592;2023-01-01T00:10:39;99267.13;;;2.56;85.69
34374;BME280;20637;55.770;37.592;2023-01-01T00:13:04;99262.66;;;2.56;85.63
34374;BME280;20637;55.770;37.592;2023-01-01T00:15:30;99260.81;;;2.57;85.92
34374;BME280;20637;55.770;37.592;2023-01-01T00:17:55;99254.91;;;2.53;86.10
34374;BME280;20637;55.770;37.592;2023-01-01T00:20:22;99269.09;;;2.54;85.89
34374;BME280;20637;55.770;37.592;2023-01-01T00:22:47;99260.81;;;2.57;86.15
34374;BME280;20637;55.770;37.592;2023-01-01T00:25:12;99258.75;;;2.60;86.05
34374;BME280;20637;55.770;37.592;2023-01-01T00:27:39;99244.13;;;2.55;86.25
34374;BME280;20637;55.770;37.592;2023-01-01T00:30:05;99244.50;;;2.50;86.12
34374;BME280;20637;55.770;37.592;2023-01-01T00:32:30;99234.81;;;2.49;86.41
34374;BME280;20637;55.770;37.592;2023-01-01T00:34:57;99237.47;;;2.49;86.39
34374;BME280;20637;55.770;37.592;2023-01-01T00:37:22;99219.44;;;2.53;86.55
34374;BME280;20637;55.770;37.592;2023-01-01T00:39:48;99227.16;;;2.56;86.84
34374;BME280;20637;55.770;37.592;2023-01-01T00:42:13;99222.69;;;2.56;86.73
34374;BME280;20637;55.770;37.592;2023-01-01T00:44:39;99213.72;;;2.57;86.78
34374;BME280;20637;55.770;37.592;2023-01-01T00:47:04;99202.81;;;2.60;86.81
34374;BME280;20637;55.770;37.592;2023-01-01T00:49:29;99200.28;;;2.59;86.53
34374;BME280;20637;55.770;37.592;2023-01-01T00:51:55;99188.03;;;2.56;86.78
34374;BME280;20637;55.770;37.592;2023-01-01T00:54:20;99184.78;;;2.53;86.67
34374;BME280;20637;55.770;37.592;2023-01-01T00:56:46;99182.88;;;2.55;86.78
34374;BME280;20637;55.770;37.592;2023-01-01T00:59:11;99175.56;;;2.57;86.88
34374;BME280;20637;55.770;37.592;2023-01-01T01:01:37;99180.91;;;2.57;86.96
34374;BME280;20637;55.770;37.592;2023-01-01T01:04:02;99172.91;;;2.57;86.95
34374;BME280;20637;55.770;37.592;2023-01-01T01:06:28;99175.44;;;2.58;87.14
34374;BME280;20637;55.770;37.592;2023-01-01T01:08:54;99165.75;;;2.57;86.91
34374;BME280;20637;55.770;37.592;2023-01-01T01:11:20;99163.94;;;2.58;86.91
34374;BME280;20637;55.770;37.592;2023-01-01T01:13:46;99151.22;;;2.61;86.75
34374;BME280;20637;55.770;37.592;2023-01-01T01:16:23;99152.19;;;2.60;86.98
34374;BME280;20637;55.770;37.592;2023-01-01T01:18:50;99141.78;;;2.57;86.96
34374;BME280;20637;55.770;37.592;2023-01-01T01:21:16;99143.59;;;2.57;86.74
34374;BME280;20637;55.770;37.592;2023-01-01T01:23:42;99138.53;;;2.54;87.14
34374;BME280;20637;55.770;37.592;2023-01-01T01:26:12;99135.03;;;2.53;86.99
34374;BME280;20637;55.770;37.592;2023-01-01T01:28:38;99125.06;;;2.55;87.11
34374;BME280;20637;55.770;37.592;2023-01-01T01:31:04;99120.59;;;2.56;87.19
34374;BME280;20637;55.770;37.592;2023-01-01T01:33:29;99120.75;;;2.54;87.16
34374;BME280;20637;55.770;37.592;2023-01-01T01:35:55;99129.44;;;2.56;87.16
34374;BME280;20637;55.770;37.592;2023-01-01T01:38:20;99127.34;;;2.60;87.27
34374;BME280;20637;55.770;37.592;2023-01-01T01:40:46;99118.38;;;2.61;87.27
34374;BME280;20637;55.770;37.592;2023-01-01T01:43:18;99108.00;;;2.58;87.21
34374;BME280;20637;55.770;37.592;2023-01-01T01:45:45;99106.75;;;2.62;87.34
34374;BME280;20637;55.770;37.592;2023-01-01T01:48:10;99106.50;;;2.65;87.22
34374;BME280;20637;55.770;37.592;2023-01-01T01:50:36;99115.47;;;2.64;87.15
34374;BME280;20637;55.770;37.592;2023-01-01T01:55:30;99106.63;;;2.63;86.80
34374;BME280;20637;55.770;37.592;2023-01-01T01:57:56;99102.13;;;2.64;86.92
34374;BME280;20637;55.770;37.592;2023-01-01T02:00:22;99102.00;;;2.65;86.79
34374;BME280;20637;55.770;37.592;2023-01-01T02:02:52;99094.88;;;2.66;86.97
34374;BME280;20637;55.770;37.592;2023-01-01T02:05:19;99094.59;;;2.69;86.87
34374;BME280;20637;55.770;37.592;2023-01-01T02:07:46;99086.59;;;2.69;86.95
34374;BME280;20637;55.770;37.592;2023-01-01T02:10:11;99095.06;;;2.74;86.69
34374;BME280;20637;55.770;37.592;2023-01-01T02:12:37;99091.53;;;2.73;86.73
34374;BME280;20637;55.770;37.592;2023-01-01T02:15:24;99082.31;;;2.77;86.67
34374;BME280;20637;55.770;37.592;2023-01-01T02:18:00;99081.47;;;2.77;86.54
34374;BME280;20637;55.770;37.592;2023-01-01T02:20:32;99073.75;;;2.74;86.51
34374;BME280;20637;55.770;37.592;2023-01-01T02:23:05;99066.44;;;2.76;86.34
34374;BME280;20637;55.770;37.592;2023-01-01T02:28:17;99068.91;;;2.68;86.42
34374;BME280;20637;55.770;37.592;2023-01-01T02:30:46;99067.22;;;2.67;86.34
34374;BME280;20637;55.770;37.592;2023-01-01T02:33:13;99065.13;;;2.70;86.42
34374;BME280;20637;55.770;37.592;2023-01-01T02:35:42;99071.19;;;2.72;86.53
34374;BME280;20637;55.770;37.592;2023-01-01T02:40:37;99058.44;;;2.76;86.72
34374;BME280;20637;55.770;37.592;2023-01-01T02:43:04;99061.22;;;2.74;86.50
34374;BME280;20637;55.770;37.592;2023-01-01T02:45:30;99057.59;;;2.75;86.53
34374;BME280;20637;55.770;37.592;2023-01-01T02:47:55;99054.94;;;2.75;86.67
34374;BME280;20637;55.770;37.592;2023-01-01T02:50:22;99050.44;;;2.76;86.92
34374;BME280;20637;55.770;37.592;2023-01-01T02:55:33;99028.28;;;2.75;87.03
34374;BME280;20637;55.770;37.592;2023-01-01T02:58:03;99020.16;;;2.77;86.92
34374;BME280;20637;55.770;37.592;2023-01-01T03:00:53;99016.25;;;2.81;86.99
34374;BME280;20637;55.770;37.592;2023-01-01T03:05:52;99008.66;;;2.76;86.67
34374;BME280;20637;55.770;37.592;2023-01-01T03:08:47;99004.44;;;2.74;86.87
34374;BME280;20637;55.770;37.592;2023-01-01T03:11:14;99009.63;;;2.75;86.85
34374;BME280;20637;55.770;37.592;2023-01-01T03:20:56;99017.69;;;2.85;86.81
34374;BME280;20637;55.770;37.592;2023-01-01T03:23:25;99007.72;;;2.87;86.76
34374;BME280;20637;55.770;37.592;2023-01-01T03:25:54;99000.16;;;2.92;87.01
34374;BME280;20637;55.770;37.592;2023-01-01T03:28:27;98994.44;;;2.97;86.90
34374;BME280;20637;55.770;37.592;2023-01-01T03:30:54;98983.59;;;2.98;86.74
34374;BME280;20637;55.770;37.592;2023-01-01T03:35:51;98978.69;;;2.94;86.71
34374;BME280;20637;55.770;37.592;2023-01-01T03:38:22;98969.03;;;2.93;86.79
34374;BME280;20637;55.770;37.592;2023-01-01T03:40:50;98956.53;;;2.93;86.55
34374;BME280;20637;55.770;37.592;2023-01-01T03:43:24;98951.91;;;2.95;86.70
34374;BME280;20637;55.770;37.592;2023-01-01T03:45:55;98951.34;;;2.92;86.59
34374;BME280;20637;55.770;37.592;2023-01-01T03:48:21;98927.19;;;2.83;86.58
34374;BME280;20637;55.770;37.592;2023-01-01T03:53:16;98921.41;;;2.78;86.67
34374;BME280;20637;55.770;37.592;2023-01-01T03:55:48;98921.41;;;2.78;87.03
34374;BME280;20637;55.770;37.592;2023-01-01T03:58:23;98920.59;;;2.78;87.29
34374;BME280;20637;55.770;37.592;2023-01-01T04:00:57;98924.06;;;2.78;87.23
34374;BME280;20637;55.770;37.592;2023-01-01T04:03:26;98941.75;;;2.79;87.47
34374;BME280;20637;55.770;37.592;2023-01-01T04:05:52;98937.84;;;2.83;87.58
34374;BME280;20637;55.770;37.592;2023-01-01T04:08:18;98926.34;;;2.83;87.66
34374;BME280;20637;55.770;37.592;2023-01-01T04:10:44;98921.84;;;2.83;87.43
34374;BME280;20637;55.770;37.592;2023-01-01T04:13:11;98925.81;;;2.89;87.57
34374;BME280;20637;55.770;37.592;2023-01-01T04:15:36;98917.94;;;2.87;87.58
34374;BME280;20637;55.770;37.592;2023-01-01T04:18:02;98922.56;;;2.85;87.59
34374;BME280;20637;55.770;37.592;2023-01-01T04:20:27;98923.38;;;2.86;87.45
34374;BME280;20637;55.770;37.592;2023-01-01T04:22:56;98922.28;;;2.88;87.58
34374;BME280;20637;55.770;37.592;2023-01-01T04:25:22;98918.50;;;2.91;87.65
34374;BME280;20637;55.770;37.592;2023-01-01T04:27:48;98921.88;;;2.93;87.95
34374;BME280;20637;55.770;37.592;2023-01-01T04:30:13;98908.81;;;2.90;87.70
34374;BME280;20637;55.770;37.592;2023-01-01T04:32:39;98910.91;;;2.86;87.80
34374;BME280;20637;55.770;37.592;2023-01-01T04:35:05;98911.47;;;2.80;87.71
34374;BME280;20637;55.770;37.592;2023-01-01T04:37:31;98890.28;;;2.79;87.80
34374;BME280;20637;55.770;37.592;2023-01-01T04:39:59;98887.59;;;2.79;87.89
34374;BME280;20637;55.770;37.592;2023-01-01T04:42:24;98889.59;;;2.77;88.27
34374;BME280;20637;55.770;37.592;2023-01-01T04:44:49;98896.59;;;2.78;88.21
34374;BME280;20637;55.770;37.592;2023-01-01T04:47:15;98900.09;;;2.78;88.49
34374;BME280;20637;55.770;37.592;2023-01-01T04:49:40;98886.91;;;2.77;88.48
34374;BME280;20637;55.770;37.592;2023-01-01T04:52:06;98884.94;;;2.79;88.78
34374;BME280;20637;55.770;37.592;2023-01-01T04:54:31;98877.50;;;2.82;88.76
34374;BME280;20637;55.770;37.592;2023-01-01T04:56:57;98873.03;;;2.83;89.15
34374;BME280;20637;55.770;37.592;2023-01-01T04:59:22;98883.56;;;2.84;89.10
34374;BME280;20637;55.770;37.592;2023-01-01T05:01:47;98881.47;;;2.88;89.30
34374;BME280;20637;55.770;37.592;2023-01-01T05:04:13;98887.47;;;2.90;89.09
34374;BME280;20637;55.770;37.592;2023-01-01T05:06:39;98884.81;;;2.90;89.02
34374;BME280;20637;55.770;37.592;2023-01-01T05:09:05;98875.00;;;2.91;89.33
34374;BME280;20637;55.770;37.592;2023-01-01T05:11:31;98874.88;;;2.92;89.21
34374;BME280;20637;55.770;37.592;2023-01-01T05:13:57;98870.25;;;2.84;89.12
34374;BME280;20637;55.770;37.592;2023-01-01T05:16:24;98872.19;;;2.82;89.08
34374;BME280;20637;55.770;37.592;2023-01-01T05:18:50;98859.84;;;2.81;88.96
34374;BME280;20637;55.770;37.592;2023-01-01T05:21:17;98872.19;;;2.82;89.22
34374;BME280;20637;55.770;37.592;2023-01-01T05:23:43;98866.84;;;2.82;89.05
34374;BME280;20637;55.770;37.592;2023-01-01T05:26:10;98877.50;;;2.82;89.29
34374;BME280;20637;55.770;37.592;2023-01-01T05:28:36;98874.16;;;2.80;89.19
34374;BME280;20637;55.770;37.592;2023-01-01T05:31:03;98870.66;;;2.80;89.62
34374;BME280;20637;55.770;37.592;2023-01-01T05:33:29;98875.00;;;2.81;89.41
34374;BME280;20637;55.770;37.592;2023-01-01T05:35:55;98869.22;;;2.76;89.38
34374;BME280;20637;55.770;37.592;2023-01-01T05:38:20;98869.22;;;2.76;89.48
34374;BME280;20637;55.770;37.592;2023-01-01T05:40:47;98871.91;;;2.76;89.89
34374;BME280;20637;55.770;37.592;2023-01-01T05:43:12;98877.94;;;2.78;89.92
34374;BME280;20637;55.770;37.592;2023-01-01T05:45:40;98872.34;;;2.81;89.98
34374;BME280;20637;55.770;37.592;2023-01-01T05:48:05;98871.22;;;2.83;89.79
34374;BME280;20637;55.770;37.592;2023-01-01T05:50:31;98853.97;;;2.87;89.72
34374;BME280;20637;55.770;37.592;2023-01-01T05:52:57;98848.75;;;2.86;89.66
34374;BME280;20637;55.770;37.592;2023-01-01T05:55:22;98855.50;;;2.90;90.11
34374;BME280;20637;55.770;37.592;2023-01-01T05:57:48;98845.56;;;2.92;90.13
34374;BME280;20637;55.770;37.592;2023-01-01T06:00:13;98835.75;;;2.93;89.96
34374;BME280;20637;55.770;37.592;2023-01-01T06:02:39;98837.69;;;2.91;89.58
34374;BME280;20637;55.770;37.592;2023-01-01T06:05:04;98837.69;;;2.91;89.75
34374;BME280;20637;55.770;37.592;2023-01-01T06:07:30;98844.03;;;2.90;89.84
34374;BME280;20637;55.770;37.592;2023-01-01T06:09:55;98842.16;;;2.90;90.13
34374;BME280;20637;55.770;37.592;2023-01-01T06:12:20;98842.03;;;2.92;89.98
34374;BME280;20637;55.770;37.592;2023-01-01T06:14:46;98846.41;;;2.93;89.85
34374;BME280;20637;55.770;37.592;2023-01-01T06:17:11;98845.28;;;2.95;89.91
34374;BME280;20637;55.770;37.592;2023-01-01T06:19:37;98841.63;;;2.96;89.87
34374;BME280;20637;55.770;37.592;2023-01-01T06:22:02;98826.47;;;2.97;90.28
34374;BME280;20637;55.770;37.592;2023-01-01T06:24:28;98823.53;;;3.00;90.14
34374;BME280;20637;55.770;37.592;2023-01-01T06:26:53;98826.47;;;3.06;90.36
34374;BME280;20637;55.770;37.592;2023-01-01T06:29:18;98813.97;;;3.07;90.45
34374;BME280;20637;55.770;37.592;2023-01-01T06:31:44;98811.31;;;3.07;89.97
34374;BME280;20637;55.770;37.592;2023-01-01T06:34:11;98813.13;;;3.06;90.20
34374;BME280;20637;55.770;37.592;2023-01-01T06:36:36;98805.00;;;3.08;90.12
34374;BME280;20637;55.770;37.592;2023-01-01T06:39:02;98814.69;;;3.09;90.02
34374;BME280;20637;55.770;37.592;2023-01-01T06:41:28;98804.28;;;3.06;89.66
34374;BME280;20637;55.770;37.592;2023-01-01T06:43:55;98786.63;;;3.05;89.96
34374;BME280;20637;55.770;37.592;2023-01-01T06:46:26;98803.44;;;3.05;89.96
34374;BME280;20637;55.770;37.592;2023-01-01T06:48:52;98791.13;;;3.04;89.74
34374;BME280;20637;55.770;37.592;2023-01-01T06:51:19;98791.97;;;3.05;90.22
34374;BME280;20637;55.770;37.592;2023-01-01T06:53:45;98778.63;;;3.05;89.69
34374;BME280;20637;55.770;37.592;2023-01-01T06:56:11;98780.31;;;3.06;89.76
34374;BME280;20637;55.770;37.592;2023-01-01T06:58:36;98762.47;;;3.06;90.04
34374;BME280;20637;55.770;37.592;2023-01-01T07:01:15;98765.00;;;3.08;89.72
34374;BME280;20637;55.770;37.592;2023-01-01T07:03:41;98751.53;;;3.09;89.97
34374;BME280;20637;55.770;37.592;2023-01-01T07:06:07;98755.03;;;3.10;89.79
34374;BME280;20637;55.770;37.592;2023-01-01T07:08:33;98744.53;;;3.08;89.75
34374;BME280;20637;55.770;37.592;2023-01-01T07:10:59;98756.19;;;3.07;89.91
34374;BME280;20637;55.770;37.592;2023-01-01T07:13:24;98762.47;;;3.06;89.91
34374;BME280;20637;55.770;37.592;2023-01-01T07:15:51;98767.53;;;3.09;89.88
34374;BME280;20637;55.770;37.592;2023-01-01T07:18:17;98773.28;;;3.14;89.90
34374;BME280;20637;55.770;37.592;2023-01-01T07:20:42;98765.84;;;3.18;90.24
34374;BME280;20637;55.770;37.592;2023-01-01T07:23:09;98769.22;;;3.20;90.18
34374;BME280;20637;55.770;37.592;2023-01-01T07:25:35;98766.53;;;3.20;90.33
34374;BME280;20637;55.770;37.592;2023-01-01T07:28:00;98756.56;;;3.22;89.87
34374;BME280;20637;55.770;37.592;2023-01-01T07:30:26;98765.41;;;3.22;90.12
34374;BME280;20637;55.770;37.592;2023-01-01T07:32:54;98757.97;;;3.26;90.30
34374;BME280;20637;55.770;37.592;2023-01-01T07:35:20;98757.41;;;3.32;90.05
34374;BME280;20637;55.770;37.592;2023-01-01T07:37:45;98765.97;;;3.35;90.22
34374;BME280;20637;55.770;37.592;2023-01-01T07:40:11;98757.66;;;3.39;90.07
34374;BME280;20637;55.770;37.592;2023-01-01T07:42:38;98754.84;;;3.40;90.43
34374;BME280;20637;55.770;37.592;2023-01-01T07:45:03;98750.06;;;3.44;90.03
34374;BME280;20637;55.770;37.592;2023-01-01T07:47:29;98746.41;;;3.45;89.94
34374;BME280;20637;55.770;37.592;2023-01-01T07:49:54;98736.44;;;3.47;90.13
34374;BME280;20637;55.770;37.592;2023-01-01T07:52:19;98738.25;;;3.46;89.86
34374;BME280;20637;55.770;37.592;2023-01-01T07:54:45;98732.75;;;3.48;90.11
34374;BME280;20637;55.770;37.592;2023-01-01T07:57:10;98736.16;;;3.50;90.13
34374;BME280;20637;55.770;37.592;2023-01-01T07:59:36;98735.16;;;3.51;89.66
34374;BME280;20637;55.770;37.592;2023-01-01T08:02:01;98731.50;;;3.52;89.74
34374;BME280;20637;55.770;37.592;2023-01-01T08:04:27;98716.50;;;3.51;89.93
34374;BME280;20637;55.770;37.592;2023-01-01T08:06:52;98720.69;;;3.53;89.56
34374;BME280;20637;55.770;37.592;2023-01-01T08:09:18;98726.03;;;3.53;89.83
34374;BME280;20637;55.770;37.592;2023-01-01T08:11:43;98726.03;;;3.53;90.08
34374;BME280;20637;55.770;37.592;2023-01-01T08:14:09;98714.38;;;3.54;89.96
34374;BME280;20637;55.770;37.592;2023-01-01T08:16:34;98714.91;;;3.58;90.08
34374;BME280;20637;55.770;37.592;2023-01-01T08:19:00;98716.59;;;3.59;90.20
34374;BME280;20637;55.770;37.592;2023-01-01T08:21:25;98713.63;;;3.62;89.95
34374;BME280;20637;55.770;37.592;2023-01-01T08:23:51;98712.66;;;3.63;90.30
34374;BME280;20637;55.770;37.592;2023-01-01T08:26:17;98715.31;;;3.63;90.19
34374;BME280;20637;55.770;37.592;2023-01-01T08:28:50;98710.97;;;3.62;90.45
34374;BME280;20637;55.770;37.592;2023-01-01T08:31:15;98713.63;;;3.62;90.60
34374;BME280;20637;55.770;37.592;2023-01-01T08:33:41;98716.13;;;3.63;90.52
34374;BME280;20637;55.770;37.592;2023-01-01T08:36:08;98709.69;;;3.66;90.75
34374;BME280;20637;55.770;37.592;2023-01-01T08:38:33;98703.19;;;3.68;90.45
34374;BME280;20637;55.770;37.592;2023-01-01T08:40:59;98694.91;;;3.71;90.75
34374;BME280;20637;55.770;37.592;2023-01-01T08:43:24;98696.44;;;3.74;90.22
34374;BME280;20637;55.770;37.592;2023-01-01T08:45:49;98685.59;;;3.75;90.66
34374;BME280;20637;55.770;37.592;2023-01-01T08:48:15;98682.94;;;3.75;90.42
34374;BME280;20637;55.770;37.592;2023-01-01T08:50:40;98676.75;;;3.75;90.34
34374;BME280;20637;55.770;37.592;2023-01-01T08:53:06;98677.16;;;3.80;90.89
34374;BME280;20637;55.770;37.592;2023-01-01T08:55:31;98683.22;;;3.82;90.66
34374;BME280;20637;55.770;37.592;2023-01-01T08:57:57;98688.53;;;3.82;90.68
34374;BME280;20637;55.770;37.592;2023-01-01T09:00:22;98688.25;;;3.85;91.17
34374;BME280;20637;55.770;37.592;2023-01-01T09:02:48;98680.78;;;3.89;91.03
34374;BME280;20637;55.770;37.592;2023-01-01T09:05:13;98690.31;;;3.91;91.25
34374;BME280;20637;55.770;37.592;2023-01-01T09:07:38;98683.13;;;3.92;91.29
34374;BME280;20637;55.770;37.592;2023-01-01T09:10:04;98670.63;;;3.92;90.68
34374;BME280;20637;55.770;37.592;2023-01-01T09:12:30;98668.63;;;3.94;91.30
34374;BME280;20637;55.770;37.592;2023-01-01T09:14:55;98665.84;;;3.96;91.13
34374;BME280;20637;55.770;37.592;2023-01-01T09:17:20;98656.84;;;3.97;90.85
34374;BME280;20637;55.770;37.592;2023-01-01T09:19:46;98657.38;;;4.00;91.37
34374;BME280;20637;55.770;37.592;2023-01-01T09:22:11;98661.56;;;4.03;91.00
34374;BME280;20637;55.770;37.592;2023-01-01T09:24:37;98653.41;;;4.04;91.12
34374;BME280;20637;55.770;37.592;2023-01-01T09:27:03;98651.72;;;4.03;91.24
34374;BME280;20637;55.770;37.592;2023-01-01T09:29:28;98641.75;;;4.05;91.54
34374;BME280;20637;55.770;37.592;2023-01-01T09:31:53;98633.75;;;4.05;91.36
34374;BME280;20637;55.770;37.592;2023-01-01T09:34:19;98638.91;;;4.07;91.39
34374;BME280;20637;55.770;37.592;2023-01-01T09:36:45;98637.09;;;4.07;91.00
34374;BME280;20637;55.770;37.592;2023-01-01T09:39:11;98637.09;;;4.07;91.26
34374;BME280;20637;55.770;37.592;2023-01-01T09:47:03;98629.91;;;4.08;91.27
34374;BME280;20637;55.770;37.592;2023-01-01T09:49:31;98622.44;;;4.11;91.54
34374;BME280;20637;55.770;37.592;2023-01-01T09:51:59;98629.31;;;4.14;91.67
34374;BME280;20637;55.770;37.592;2023-01-01T09:54:27;98623.50;;;4.18;91.61
34374;BME280;20637;55.770;37.592;2023-01-01T09:56:54;98620.53;;;4.21;91.57
34374;BME280;20637;55.770;37.592;2023-01-01T09:59:20;98618.38;;;4.25;91.41
34374;BME280;20637;55.770;37.592;2023-01-01T10:06:50;98603.44;;;4.32;91.27
34374;BME280;20637;55.770;37.592;2023-01-01T10:14:39;98594.81;;;4.38;91.57
34374;BME280;20637;55.770;37.592;2023-01-01T10:17:18;98591.81;;;4.41;91.34
34374;BME280;20637;55.770;37.592;2023-01-01T10:19:52;98578.13;;;4.44;91.48
34374;BME280;20637;55.770;37.592;2023-01-01T10:22:24;98566.31;;;4.47;90.94
34374;BME280;20637;55.770;37.592;2023-01-01T10:24:58;98572.34;;;4.49;91.69
34374;BME280;20637;55.770;37.592;2023-01-01T10:27:36;98568.00;;;4.48;91.38
34374;BME280;20637;55.770;37.592;2023-01-01T10:30:03;98570.81;;;4.46;91.33
34374;BME280;20637;55.770;37.592;2023-01-01T10:32:35;98559.44;;;4.44;91.06
34374;BME280;20637;55.770;37.592;2023-01-01T10:35:10;98556.75;;;4.44;90.64
34374;BME280;20637;55.770;37.592;2023-01-01T10:37:36;98555.63;;;4.47;90.62
34374;BME280;20637;55.770;37.592;2023-01-01T10:40:05;98554.66;;;4.48;91.13
34374;BME280;20637;55.770;37.592;2023-01-01T10:42:31;98542.81;;;4.50;90.65
34374;BME280;20637;55.770;37.592;2023-01-01T10:44:57;98540.97;;;4.51;91.28
34374;BME280;20637;55.770;37.592;2023-01-01T10:47:28;98542.66;;;4.52;90.79
34374;BME280;20637;55.770;37.592;2023-01-01T10:49:55;98537.00;;;4.55;90.79
34374;BME280;20637;55.770;37.592;2023-01-01T10:52:28;98531.31;;;4.58;90.67
34374;BME280;20637;55.770;37.592;2023-01-01T10:54:55;98535.38;;;4.62;90.82
34374;BME280;20637;55.770;37.592;2023-01-01T10:57:32;98523.50;;;4.64;90.94
34374;BME280;20637;55.770;37.592;2023-01-01T11:00:15;98526.88;;;4.66;91.03
34374;BME280;20637;55.770;37.592;2023-01-01T11:02:45;98517.69;;;4.69;90.48
34374;BME280;20637;55.770;37.592;2023-01-01T11:05:15;98514.69;;;4.72;91.02
34374;BME280;20637;55.770;37.592;2023-01-01T11:07:41;98521.59;;;4.74;90.43
34374;BME280;20637;55.770;37.592;2023-01-01T11:10:11;98520.75;;;4.74;90.47
34374;BME280;20637;55.770;37.592;2023-01-01T11:12:39;98524.78;;;4.78;90.73
34374;BME280;20637;55.770;37.592;2023-01-01T11:15:05;98520.09;;;4.80;90.79
34374;BME280;20637;55.770;37.592;2023-01-01T11:17:31;98521.47;;;4.84;90.72
34374;BME280;20637;55.770;37.592;2023-01-01T11:19:58;98520.28;;;4.87;90.85
34374;BME280;20637;55.770;37.592;2023-01-01T11:22:44;98511.13;;;4.89;90.52
34374;BME280;20637;55.770;37.592;2023-01-01T11:27:42;98511.97;;;4.90;90.22
34374;BME280;20637;55.770;37.592;2023-01-01T11:30:27;98511.13;;;4.89;90.00
34374;BME280;20637;55.770;37.592;2023-01-01T11:32:59;98500.44;;;4.89;90.17
34374;BME280;20637;55.770;37.592;2023-01-01T11:35:26;98499.59;;;4.89;89.90
34374;BME280;20637;55.770;37.592;2023-01-01T11:37:53;98504.94;;;4.89;90.39
34374;BME280;20637;55.770;37.592;2023-01-01T11:40:23;98496.22;;;4.87;90.27
34374;BME280;20637;55.770;37.592;2023-01-01T11:42:55;98496.41;;;4.85;90.21
34374;BME280;20637;55.770;37.592;2023-01-01T11:45:25;98489.03;;;4.87;90.05
34374;BME280;20637;55.770;37.592;2023-01-01T11:47:53;98483.69;;;4.87;90.04
34374;BME280;20637;55.770;37.592;2023-01-01T11:50:38;98483.69;;;4.87;90.52
34374;BME280;20637;55.770;37.592;2023-01-01T11:53:24;98475.53;;;4.89;90.54
34374;BME280;20637;55.770;37.592;2023-01-01T11:55:51;98478.88;;;4.91;90.48
34374;BME280;20637;55.770;37.592;2023-01-01T12:01:05;98467.03;;;4.93;90.28
34374;BME280;20637;55.770;37.592;2023-01-01T12:03:37;98470.56;;;4.94;90.73
34374;BME280;20637;55.770;37.592;2023-01-01T12:08:40;98471.72;;;4.99;90.84
34374;BME280;20637;55.770;37.592;2023-01-01T12:13:59;98467.06;;;5.01;90.38
34374;BME280;20637;55.770;37.592;2023-01-01T12:16:38;98457.03;;;5.03;90.55
34374;BME280;20637;55.770;37.592;2023-01-01T12:21:59;98446.34;;;5.03;90.37
34374;BME280;20637;55.770;37.592;2023-01-01T12:24:33;98449.69;;;5.05;90.51
34374;BME280;20637;55.770;37.592;2023-01-01T12:27:03;98450.34;;;5.07;90.59
34374;BME280;20637;55.770;37.592;2023-01-01T12:43:06;98441.34;;;5.08;91.04
34374;BME280;20637;55.770;37.592;2023-01-01T12:48:04;98443.53;;;5.13;91.05
34374;BME280;20637;55.770;37.592;2023-01-01T12:56:12;98443.03;;;5.25;91.37
34374;BME280;20637;55.770;37.592;2023-01-01T13:01:20;98437.06;;;5.32;91.08
34374;BME280;20637;55.770;37.592;2023-01-01T13:03:48;98434.38;;;5.32;91.33
34374;BME280;20637;55.770;37.592;2023-01-01T13:06:15;98439.75;;;5.32;91.17
34374;BME280;20637;55.770;37.592;2023-01-01T13:08:41;98435.53;;;5.29;91.01
34374;BME280;20637;55.770;37.592;2023-01-01T13:11:09;98433.88;;;5.28;90.78
34374;BME280;20637;55.770;37.592;2023-01-01T13:13:36;98420.31;;;5.29;91.42
34374;BME280;20637;55.770;37.592;2023-01-01T13:16:02;98424.34;;;5.34;91.22
34374;BME280;20637;55.770;37.592;2023-01-01T13:18:31;98416.16;;;5.35;91.12
34374;BME280;20637;55.770;37.592;2023-01-01T13:20:59;98414.16;;;5.37;91.02
34374;BME280;20637;55.770;37.592;2023-01-01T13:29:30;98400.63;;;5.39;91.21
34374;BME280;20637;55.770;37.592;2023-01-01T13:36:46;98382.88;;;5.38;91.12
34374;BME280;20637;55.770;37.592;2023-01-01T13:39:11;98383.38;;;5.41;91.33
34374;BME280;20637;55.770;37.592;2023-01-01T13:41:57;98376.53;;;5.39;90.77
34374;BME280;20637;55.770;37.592;2023-01-01T13:44:22;98376.69;;;5.37;91.17
34374;BME280;20637;55.770;37.592;2023-01-01T13:46:57;98378.56;;;5.37;91.21
34374;BME280;20637;55.770;37.592;2023-01-01T13:49:38;98382.88;;;5.38;91.16
34374;BME280;20637;55.770;37.592;2023-01-01T13:59:57;98388.91;;;5.40;91.03
34374;BME280;20637;55.770;37.592;2023-01-01T14:05:06;98386.06;;;5.41;91.24
34374;BME280;20637;55.770;37.592;2023-01-01T14:12:51;98385.22;;;5.49;91.53
34374;BME280;20637;55.770;37.592;2023-01-01T14:17:52;98372.88;;;5.48;91.34
34374;BME280;20637;55.770;37.592;2023-01-01T14:20:18;98366.00;;;5.53;91.31
34374;BME280;20637;55.770;37.592;2023-01-01T14:22:45;98362.81;;;5.58;91.63
34374;BME280;20637;55.770;37.592;2023-01-01T14:25:15;98363.81;;;5.57;91.38
34374;BME280;20637;55.770;37.592;2023-01-01T14:27:44;98361.31;;;5.55;91.41
34374;BME280;20637;55.770;37.592;2023-01-01T14:30:14;98364.00;;;5.55;91.13
34374;BME280;20637;55.770;37.592;2023-01-01T14:32:40;98360.50;;;5.55;91.22
34374;BME280;20637;55.770;37.592;2023-01-01T14:35:10;98365.16;;;5.53;91.28
34374;BME280;20637;55.770;37.592;2023-01-01T14:37:37;98354.44;;;5.53;91.56
34374;BME280;20637;55.770;37.592;2023-01-01T14:40:05;98353.09;;;5.49;91.18
34374;BME280;20637;55.770;37.592;2023-01-01T14:42:31;98344.78;;;5.52;91.57
34374;BME280;20637;55.770;37.592;2023-01-01T14:44:56;98345.44;;;5.54;91.47
34374;BME280;20637;55.770;37.592;2023-01-01T14:49:50;98330.84;;;5.56;91.60
34374;BME280;20637;55.770;37.592;2023-01-01T14:52:20;98328.88;;;5.58;91.53